createdAt,value
2022-12-01T00:01:45.817Z,4.15
2022-12-01T00:04:12.474Z,4.15
2022-12-01T00:06:39.079Z,4.11
2022-12-01T00:09:24.477Z,4.13
2022-12-01T00:11:51.160Z,4.10
2022-12-01T00:14:17.922Z,4.16
2022-12-01T00:16:44.905Z,4.20
2022-12-01T00:19:11.627Z,4.25
2022-12-01T00:21:38.230Z,4.28
2022-12-01T00:24:05.565Z,4.34
2022-12-01T00:26:32.375Z,4.37
2022-12-01T00:29:00.123Z,4.40
2022-12-01T00:31:27.594Z,4.42
2022-12-01T00:33:54.602Z,4.45
2022-12-01T00:36:21.619Z,4.44
2022-12-01T00:38:52.836Z,4.37
2022-12-01T00:41:19.493Z,4.37
2022-12-01T00:43:46.141Z,4.37
2022-12-01T00:46:12.800Z,4.35
2022-12-01T00:48:40.125Z,4.41
2022-12-01T00:51:06.872Z,4.46
2022-12-01T00:53:33.662Z,4.48
2022-12-01T00:56:00.500Z,4.48
2022-12-01T00:58:27.565Z,4.47
2022-12-01T01:01:01.747Z,4.49
2022-12-01T01:03:30.271Z,4.44
2022-12-01T01:05:57.660Z,4.40
2022-12-01T01:08:26.371Z,4.40
2022-12-01T01:10:53.016Z,4.41
2022-12-01T01:13:19.884Z,4.41
2022-12-01T01:15:56.369Z,4.43
2022-12-01T01:18:22.929Z,4.40
2022-12-01T01:21:06.154Z,4.44
2022-12-01T01:23:33.430Z,4.36
2022-12-01T01:26:05.461Z,4.38
2022-12-01T01:28:32.915Z,4.34
2022-12-01T01:31:00.194Z,4.39
2022-12-01T01:33:26.927Z,4.35
2022-12-01T01:35:53.820Z,4.36
2022-12-01T01:38:20.420Z,4.32
2022-12-01T01:40:47.255Z,4.31
2022-12-01T01:43:37.734Z,4.34
2022-12-01T01:46:06.456Z,4.33
2022-12-01T01:48:35.228Z,4.31
2022-12-01T01:51:02.578Z,4.27
2022-12-01T01:53:29.383Z,4.23
2022-12-01T01:55:56.212Z,4.19
2022-12-01T01:58:23.616Z,4.16
2022-12-01T02:00:50.644Z,4.15
2022-12-01T02:03:20.317Z,4.17
2022-12-01T02:05:47.557Z,4.13
2022-12-01T02:08:14.180Z,4.12
2022-12-01T02:11:10.515Z,4.10
2022-12-01T02:14:12.000Z,4.07
2022-12-01T02:16:51.690Z,4.02
2022-12-01T02:19:42.941Z,3.97
2022-12-01T02:22:32.696Z,3.96
2022-12-01T02:25:11.238Z,3.89
2022-12-01T02:28:34.737Z,3.88
2022-12-01T02:31:14.889Z,3.87
2022-12-01T02:33:56.144Z,3.86
2022-12-01T02:36:37.349Z,3.89
2022-12-01T02:39:09.615Z,3.94
2022-12-01T02:42:04.981Z,3.94
2022-12-01T02:44:37.685Z,3.97
2022-12-01T02:47:11.802Z,3.97
2022-12-01T02:49:48.756Z,3.99
2022-12-01T02:52:16.835Z,3.96
2022-12-01T02:54:45.960Z,3.97
2022-12-01T02:57:14.951Z,3.98
2022-12-01T02:59:45.436Z,4.03
2022-12-01T03:02:43.467Z,4.01
2022-12-01T03:05:32.508Z,3.97
2022-12-01T03:08:08.416Z,4.00
2022-12-01T03:10:54.770Z,4.05
2022-12-01T03:13:33.800Z,4.11
2022-12-01T03:16:14.130Z,4.10
2022-12-01T03:18:54.226Z,4.15
2022-12-01T03:21:27.235Z,4.18
2022-12-01T03:24:01.007Z,4.21
2022-12-01T03:26:31.525Z,4.21
2022-12-01T03:29:03.859Z,4.23
2022-12-01T03:31:37.726Z,4.25
2022-12-01T03:34:11.589Z,4.26
2022-12-01T03:37:01.300Z,4.29
2022-12-01T03:39:35.533Z,4.30
2022-12-01T03:42:18.416Z,4.30
2022-12-01T03:44:54.112Z,4.33
2022-12-01T03:47:27.465Z,4.30
2022-12-01T03:49:54.839Z,4.32
2022-12-01T03:52:41.246Z,4.34
2022-12-01T03:55:29.884Z,4.27
2022-12-01T03:58:01.782Z,4.26
2022-12-01T04:00:31.496Z,4.21
2022-12-01T04:03:00.834Z,4.22
2022-12-01T04:05:27.928Z,4.19
2022-12-01T04:07:55.259Z,4.19
2022-12-01T04:10:22.699Z,4.21
2022-12-01T04:12:49.706Z,4.20
2022-12-01T04:15:17.146Z,4.21
2022-12-01T04:17:44.777Z,4.20
2022-12-01T04:20:14.138Z,4.20
2022-12-01T04:22:41.000Z,4.18
2022-12-01T04:25:08.665Z,4.20
2022-12-01T04:27:35.856Z,4.21
2022-12-01T04:30:03.886Z,4.19
2022-12-01T04:32:30.467Z,4.21
2022-12-01T04:34:57.110Z,4.20
2022-12-01T04:37:23.765Z,4.22
2022-12-01T04:39:50.553Z,4.22
2022-12-01T04:42:17.428Z,4.21
2022-12-01T04:44:44.010Z,4.20
2022-12-01T04:47:10.909Z,4.23
2022-12-01T04:49:37.891Z,4.21
2022-12-01T04:52:04.935Z,4.21
2022-12-01T04:54:31.474Z,4.21
2022-12-01T04:56:58.201Z,4.17
2022-12-01T04:59:24.899Z,4.11
2022-12-01T05:01:51.633Z,4.12
2022-12-01T05:04:18.340Z,4.13
2022-12-01T05:06:45.704Z,4.11
2022-12-01T05:09:17.192Z,4.13
2022-12-01T05:11:45.194Z,4.12
2022-12-01T05:14:12.473Z,4.12
2022-12-01T05:16:39.907Z,4.10
2022-12-01T05:19:25.486Z,4.08
2022-12-01T05:21:52.536Z,4.07
2022-12-01T05:24:20.961Z,4.09
2022-12-01T05:26:47.971Z,4.04
2022-12-01T05:29:14.997Z,4.01
2022-12-01T05:31:41.718Z,3.98
2022-12-01T05:34:08.902Z,4.00
2022-12-01T05:36:35.880Z,3.96
2022-12-01T05:39:02.793Z,3.95
2022-12-01T05:41:29.398Z,3.93
2022-12-01T05:43:56.035Z,3.90
2022-12-01T05:46:22.756Z,3.88
2022-12-01T05:48:49.493Z,3.85
2022-12-01T05:51:17.605Z,3.82
2022-12-01T05:53:45.209Z,3.80
2022-12-01T05:56:12.107Z,3.79
2022-12-01T05:58:38.853Z,3.79
2022-12-01T06:01:05.730Z,3.76
2022-12-01T06:03:33.319Z,3.75
2022-12-01T06:05:59.999Z,3.71
2022-12-01T06:08:28.174Z,3.70
2022-12-01T06:10:54.797Z,3.72
2022-12-01T06:13:21.772Z,3.69
2022-12-01T06:16:03.129Z,3.71
2022-12-01T06:18:35.914Z,3.70
2022-12-01T06:21:04.751Z,3.71
2022-12-01T06:23:32.570Z,3.71
2022-12-01T06:25:59.215Z,3.71
2022-12-01T06:28:26.689Z,3.71
2022-12-01T06:31:00.985Z,3.71
2022-12-01T06:33:29.371Z,3.69
2022-12-01T06:36:05.019Z,3.70
2022-12-01T06:38:35.382Z,3.70
2022-12-01T06:41:03.775Z,3.66
2022-12-01T06:43:30.764Z,3.67
2022-12-01T06:46:01.682Z,3.68
2022-12-01T06:48:28.512Z,3.69
2022-12-01T06:51:01.083Z,3.70
2022-12-01T06:53:28.732Z,3.74
2022-12-01T06:56:01.403Z,3.75
2022-12-01T06:58:28.531Z,3.76
2022-12-01T07:00:57.716Z,3.78
2022-12-01T07:03:25.892Z,3.80
2022-12-01T07:06:00.005Z,3.82
2022-12-01T07:08:28.491Z,3.83
2022-12-01T07:11:03.676Z,3.87
2022-12-01T07:13:33.668Z,3.92
2022-12-01T07:16:03.057Z,3.93
2022-12-01T07:18:30.145Z,3.92
2022-12-01T07:21:01.484Z,3.96
2022-12-01T07:23:28.390Z,4.00
2022-12-01T07:26:02.529Z,4.05
2022-12-01T07:28:32.976Z,4.04
2022-12-01T07:31:11.383Z,4.06
2022-12-01T07:33:39.220Z,4.06
2022-12-01T07:36:06.532Z,4.06
2022-12-01T07:38:34.263Z,4.09
2022-12-01T07:41:07.253Z,4.13
2022-12-01T07:43:35.168Z,4.16
2022-12-01T07:46:20.298Z,4.21
2022-12-01T07:48:49.168Z,4.22
2022-12-01T07:51:19.629Z,4.22
2022-12-01T07:53:48.528Z,4.22
2022-12-01T07:56:16.004Z,4.28
2022-12-01T07:58:44.206Z,4.33
2022-12-01T08:01:14.652Z,4.48
2022-12-01T08:03:42.499Z,4.58
2022-12-01T08:06:10.489Z,4.67
2022-12-01T08:08:40.196Z,4.73
2022-12-01T08:11:29.475Z,4.80
2022-12-01T08:13:56.622Z,4.78
2022-12-01T08:16:24.883Z,4.81
2022-12-01T08:18:51.876Z,4.81
2022-12-01T08:21:20.803Z,4.82
2022-12-01T08:23:48.229Z,4.86
2022-12-01T08:26:17.753Z,4.88
2022-12-01T08:28:45.283Z,4.87
2022-12-01T08:31:15.559Z,4.87
2022-12-01T08:33:42.833Z,4.88
2022-12-01T08:36:09.827Z,4.90
2022-12-01T08:38:36.463Z,4.93
2022-12-01T08:41:05.356Z,4.92
2022-12-01T08:43:56.597Z,4.89
2022-12-01T08:46:18.842Z,4.88
2022-12-01T08:48:45.832Z,4.85
2022-12-01T08:51:15.530Z,4.93
2022-12-01T08:53:45.866Z,4.93
2022-12-01T08:56:22.015Z,4.89
2022-12-01T08:58:49.057Z,4.88
2022-12-01T09:01:17.056Z,4.90
2022-12-01T09:03:44.788Z,4.93
2022-12-01T09:06:17.483Z,4.96
2022-12-01T09:08:44.402Z,4.97
2022-12-01T09:11:14.699Z,4.98
2022-12-01T09:13:42.454Z,5.00
2022-12-01T09:16:13.043Z,4.98
2022-12-01T09:18:41.540Z,4.98
2022-12-01T09:21:22.381Z,5.00
2022-12-01T09:23:49.610Z,5.04
2022-12-01T09:26:19.344Z,5.08
2022-12-01T09:28:47.897Z,5.08
2022-12-01T09:31:16.073Z,5.07
2022-12-01T09:33:42.789Z,5.10
2022-12-01T09:36:10.730Z,5.12
2022-12-01T09:38:38.878Z,5.15
2022-12-01T09:41:15.365Z,5.17
2022-12-01T09:43:47.422Z,5.21
2022-12-01T09:46:20.905Z,5.27
2022-12-01T09:48:51.473Z,5.26
2022-12-01T09:51:24.023Z,5.30
2022-12-01T09:53:53.287Z,5.33
2022-12-01T09:56:24.990Z,5.39
2022-12-01T09:59:08.269Z,5.43
2022-12-01T10:01:38.608Z,5.46
2022-12-01T10:04:17.574Z,5.54
2022-12-01T10:06:57.984Z,5.57
2022-12-01T10:09:52.272Z,5.62
2022-12-01T10:12:22.950Z,5.66
2022-12-01T10:14:50.969Z,5.70
2022-12-01T10:17:34.455Z,5.67
2022-12-01T10:20:14.228Z,5.70
2022-12-01T10:23:22.431Z,5.68
2022-12-01T10:26:10.215Z,5.78
2022-12-01T10:28:56.311Z,5.77
2022-12-01T10:31:39.941Z,5.80
2022-12-01T10:34:13.419Z,5.88
2022-12-01T10:36:40.437Z,5.93
2022-12-01T10:39:15.708Z,5.96
2022-12-01T10:41:42.538Z,5.98
2022-12-01T10:44:10.300Z,6.03
2022-12-01T10:46:52.554Z,5.98
2022-12-01T10:49:19.922Z,6.02
2022-12-01T10:51:58.268Z,6.06
2022-12-01T10:54:39.039Z,6.10
2022-12-01T10:57:17.506Z,6.08
2022-12-01T10:59:59.704Z,6.10
2022-12-01T11:02:29.991Z,6.13
2022-12-01T11:05:06.578Z,6.15
2022-12-01T11:07:35.491Z,6.16
2022-12-01T11:10:02.934Z,6.14
2022-12-01T11:12:30.346Z,6.13
2022-12-01T11:14:58.279Z,6.11
2022-12-01T11:18:00.922Z,6.09
2022-12-01T11:20:32.349Z,6.10
2022-12-01T11:23:17.798Z,6.15
2022-12-01T11:25:57.285Z,6.14
2022-12-01T11:28:24.529Z,6.21
2022-12-01T11:31:09.694Z,6.28
2022-12-01T11:33:50.393Z,6.31
2022-12-01T11:36:28.317Z,6.37
2022-12-01T11:38:58.223Z,6.43
2022-12-01T11:41:29.685Z,6.49
2022-12-01T11:44:01.827Z,6.52
2022-12-01T11:46:35.758Z,6.53
2022-12-01T11:49:03.354Z,6.50
2022-12-01T11:51:37.264Z,6.56
2022-12-01T11:54:15.115Z,6.58
2022-12-01T11:56:44.364Z,6.64
2022-12-01T11:59:13.037Z,6.64
2022-12-01T12:02:04.924Z,6.72
2022-12-01T12:04:43.868Z,6.76
2022-12-01T12:07:26.691Z,6.76
2022-12-01T12:10:15.960Z,6.78
2022-12-01T12:13:01.889Z,6.78
2022-12-01T12:16:06.973Z,6.76
2022-12-01T12:18:50.789Z,6.81
2022-12-01T12:21:34.704Z,6.88
2022-12-01T12:24:23.852Z,6.90
2022-12-01T12:27:08.789Z,6.94
2022-12-01T12:30:20.783Z,6.92
2022-12-01T12:33:38.979Z,6.90
2022-12-01T12:36:35.098Z,6.90
2022-12-01T12:39:50.513Z,6.97
2022-12-01T12:42:52.435Z,7.08
2022-12-01T12:45:34.294Z,7.11
2022-12-01T12:48:19.220Z,7.12
2022-12-01T12:50:58.049Z,7.16
2022-12-01T12:53:34.665Z,7.18
2022-12-01T12:56:06.500Z,7.21
2022-12-01T12:58:39.815Z,7.22
2022-12-01T13:01:18.211Z,7.27
2022-12-01T13:04:06.758Z,7.31
2022-12-01T13:06:46.689Z,7.33
2022-12-01T13:09:27.244Z,7.35
2022-12-01T13:12:01.903Z,7.39
2022-12-01T13:14:36.963Z,7.37
2022-12-01T13:17:11.996Z,7.37
2022-12-01T13:19:41.807Z,7.41
2022-12-01T13:22:18.520Z,7.46
2022-12-01T13:24:45.841Z,7.45
2022-12-01T13:27:23.090Z,7.48
2022-12-01T13:29:54.738Z,7.48
2022-12-01T13:32:29.159Z,7.46
2022-12-01T13:34:56.538Z,7.44
2022-12-01T13:37:29.334Z,7.47
2022-12-01T13:40:06.154Z,7.42
2022-12-01T13:42:34.571Z,7.42
2022-12-01T13:45:10.875Z,7.44
2022-12-01T13:47:39.688Z,7.41
2022-12-01T13:50:42.611Z,7.40
2022-12-01T13:53:27.830Z,7.39
2022-12-01T13:55:57.581Z,7.38
2022-12-01T13:58:33.253Z,7.31
2022-12-01T14:01:25.334Z,7.29
2022-12-01T14:03:52.224Z,7.23
2022-12-01T14:06:34.132Z,7.21
2022-12-01T14:09:05.146Z,7.19
2022-12-01T14:11:35.914Z,7.12
2022-12-01T14:14:26.385Z,7.12
2022-12-01T14:16:57.923Z,7.13
2022-12-01T14:19:58.105Z,7.13
2022-12-01T14:22:37.133Z,7.15
2022-12-01T14:25:39.641Z,7.12
2022-12-01T14:28:15.950Z,7.10
2022-12-01T14:30:44.365Z,7.10
2022-12-01T14:33:48.528Z,7.10
2022-12-01T14:36:24.362Z,7.08
2022-12-01T14:39:33.419Z,7.08
2022-12-01T14:42:55.734Z,7.07
2022-12-01T14:45:48.627Z,7.01
2022-12-01T14:48:43.655Z,6.94
2022-12-01T14:51:29.009Z,6.88
2022-12-01T14:53:59.591Z,6.85
2022-12-01T14:56:31.697Z,6.79
2022-12-01T14:59:00.976Z,6.78
2022-12-01T15:01:43.540Z,6.76
2022-12-01T15:04:12.866Z,6.70
2022-12-01T15:06:39.991Z,6.68
2022-12-01T15:12:08.648Z,6.59
2022-12-01T15:14:48.121Z,6.58
2022-12-01T15:17:34.614Z,6.52
2022-12-01T15:20:05.834Z,6.46
2022-12-01T15:22:34.069Z,6.41
2022-12-01T15:25:15.748Z,6.36
2022-12-01T15:28:12.632Z,6.32
2022-12-01T15:30:45.831Z,6.24
2022-12-01T15:33:36.976Z,6.23
2022-12-01T15:36:04.602Z,6.16
2022-12-01T15:38:35.894Z,6.12
2022-12-01T15:41:28.357Z,6.06
2022-12-01T15:44:06.643Z,6.02
2022-12-01T15:46:34.815Z,6.00
2022-12-01T15:49:30.095Z,5.95
2022-12-01T15:52:12.770Z,5.94
2022-12-01T15:54:43.218Z,5.89
2022-12-01T15:57:18.291Z,5.86
2022-12-01T15:59:47.228Z,5.79
2022-12-01T16:02:26.967Z,5.77
2022-12-01T16:05:09.046Z,5.75
2022-12-01T16:08:12.037Z,5.71
2022-12-01T16:10:35.770Z,5.71
2022-12-01T16:13:42.113Z,5.71
2022-12-01T16:16:42.447Z,5.68
2022-12-01T16:19:09.072Z,5.63
2022-12-01T16:22:06.100Z,5.59
2022-12-01T16:24:39.901Z,5.54
2022-12-01T16:27:17.989Z,5.48
2022-12-01T16:30:09.502Z,5.39
2022-12-01T16:32:44.734Z,5.35
2022-12-01T16:35:26.849Z,5.35
2022-12-01T16:37:58.430Z,5.32
2022-12-01T16:40:26.400Z,5.31
2022-12-01T16:42:57.201Z,5.27
2022-12-01T16:45:28.467Z,5.23
2022-12-01T16:48:04.777Z,5.15
2022-12-01T16:50:37.272Z,5.12
2022-12-01T16:53:05.280Z,5.05
2022-12-01T16:55:53.239Z,5.03
2022-12-01T16:58:20.618Z,4.96
2022-12-01T17:00:56.128Z,4.86
2022-12-01T17:03:26.545Z,4.80
2022-12-01T17:05:54.304Z,4.73
2022-12-01T17:08:22.102Z,4.72
2022-12-01T17:10:51.267Z,4.71
2022-12-01T17:13:20.035Z,4.70
2022-12-01T17:15:49.412Z,4.67
2022-12-01T17:18:19.169Z,4.68
2022-12-01T17:20:48.837Z,4.62
2022-12-01T17:23:15.920Z,4.59
2022-12-01T17:25:42.916Z,4.56
2022-12-01T17:28:22.209Z,4.50
2022-12-01T17:30:51.799Z,4.41
2022-12-01T17:33:20.888Z,4.37
2022-12-01T17:35:50.855Z,4.34
2022-12-01T17:38:17.580Z,4.29
2022-12-01T17:40:58.705Z,4.28
2022-12-01T17:43:25.519Z,4.23
2022-12-01T17:45:54.982Z,4.21
2022-12-01T17:48:21.577Z,4.13
2022-12-01T17:50:48.161Z,4.00
2022-12-01T17:53:14.805Z,3.87
2022-12-01T17:55:41.589Z,3.86
2022-12-01T17:58:09.758Z,3.86
2022-12-01T18:00:36.403Z,3.78
2022-12-01T18:03:03.786Z,3.76
2022-12-01T18:05:30.607Z,3.62
2022-12-01T18:07:57.522Z,3.64
2022-12-01T18:10:24.431Z,3.60
2022-12-01T18:12:51.080Z,3.58
2022-12-01T18:15:18.400Z,3.58
2022-12-01T18:17:45.045Z,3.52
2022-12-01T18:20:11.939Z,3.49
2022-12-01T18:22:38.666Z,3.47
2022-12-01T18:25:05.903Z,3.44
2022-12-01T18:27:32.564Z,3.40
2022-12-01T18:29:59.438Z,3.35
2022-12-01T18:32:26.026Z,3.35
2022-12-01T18:34:53.077Z,3.35
2022-12-01T18:37:19.965Z,3.33
2022-12-01T18:39:46.892Z,3.31
2022-12-01T18:42:17.765Z,3.29
2022-12-01T18:44:44.441Z,3.32
2022-12-01T18:47:15.218Z,3.25
2022-12-01T18:49:42.290Z,3.31
2022-12-01T18:52:08.984Z,3.28
2022-12-01T18:54:36.269Z,3.25
2022-12-01T18:57:03.192Z,3.21
2022-12-01T18:59:31.153Z,3.21
2022-12-01T19:01:57.935Z,3.21
2022-12-01T19:04:24.626Z,3.13
2022-12-01T19:06:51.365Z,3.11
2022-12-01T19:09:18.972Z,3.07
2022-12-01T19:11:46.504Z,3.02
2022-12-01T19:14:18.681Z,3.01
2022-12-01T19:16:46.228Z,2.97
2022-12-01T19:19:13.412Z,2.97
2022-12-01T19:21:41.798Z,2.97
2022-12-01T19:24:08.512Z,2.99
2022-12-01T19:26:35.346Z,2.98
2022-12-01T19:29:05.363Z,2.96
2022-12-01T19:31:32.145Z,3.01
2022-12-01T19:33:58.995Z,2.96
2022-12-01T19:36:27.928Z,2.95
2022-12-01T19:38:58.302Z,2.95
2022-12-01T19:41:26.143Z,2.95
2022-12-01T19:43:53.962Z,2.86
2022-12-01T19:46:27.584Z,2.78
2022-12-01T19:49:05.838Z,2.73
2022-12-01T19:51:37.451Z,2.72
2022-12-01T19:54:13.201Z,2.71
2022-12-01T19:56:39.915Z,2.63
2022-12-01T19:59:07.989Z,2.64
2022-12-01T20:01:34.795Z,2.58
2022-12-01T20:04:01.728Z,2.58
2022-12-01T20:06:30.988Z,2.58
2022-12-01T20:08:59.918Z,2.55
2022-12-01T20:11:29.892Z,2.57
2022-12-01T20:13:56.756Z,2.54
2022-12-01T20:16:25.641Z,2.54
2022-12-01T20:18:54.140Z,2.56
2022-12-01T20:21:27.419Z,2.59
2022-12-01T20:24:02.649Z,2.59
2022-12-01T20:26:32.837Z,2.60
2022-12-01T20:29:04.082Z,2.56
2022-12-01T20:31:32.597Z,2.59
2022-12-01T20:34:02.038Z,2.59
2022-12-01T20:36:32.048Z,2.55
2022-12-01T20:39:01.177Z,2.59
2022-12-01T20:41:27.885Z,2.60
2022-12-01T20:43:54.623Z,2.61
2022-12-01T20:46:21.280Z,2.59
2022-12-01T20:48:49.605Z,2.59
2022-12-01T20:51:16.724Z,2.53
2022-12-01T20:54:05.481Z,2.51
2022-12-01T20:56:32.279Z,2.47
2022-12-01T20:58:59.987Z,2.44
2022-12-01T21:01:26.856Z,2.45
2022-12-01T21:03:54.658Z,2.42
2022-12-01T21:06:21.816Z,2.46
2022-12-01T21:08:50.051Z,2.43
2022-12-01T21:11:52.316Z,2.46
2022-12-01T21:14:31.703Z,2.46
2022-12-01T21:17:04.234Z,2.40
2022-12-01T21:19:47.145Z,2.41
2022-12-01T21:22:14.287Z,2.37
2022-12-01T21:24:48.411Z,2.38
2022-12-01T21:27:17.142Z,2.39
2022-12-01T21:29:50.019Z,2.36
2022-12-01T21:32:29.823Z,2.35
2022-12-01T21:35:02.952Z,2.34
2022-12-01T21:37:29.574Z,2.35
2022-12-01T21:39:57.051Z,2.38
2022-12-01T21:42:27.639Z,2.41
2022-12-01T21:44:56.133Z,2.39
2022-12-01T21:47:25.878Z,2.39
2022-12-01T21:49:55.834Z,2.38
2022-12-01T21:52:30.442Z,2.40
2022-12-01T21:55:23.512Z,2.40
2022-12-01T21:57:54.545Z,2.37
2022-12-01T22:00:30.802Z,2.40
2022-12-01T22:03:00.444Z,2.40
2022-12-01T22:05:33.872Z,2.38
2022-12-01T22:08:25.941Z,2.37
2022-12-01T22:11:12.768Z,2.38
2022-12-01T22:13:43.722Z,2.37
2022-12-01T22:16:22.860Z,2.37
2022-12-01T22:18:52.686Z,2.39
2022-12-01T22:22:09.072Z,2.38
2022-12-01T22:24:52.251Z,2.37
2022-12-01T22:27:34.369Z,2.34
2022-12-01T22:30:07.491Z,2.38
2022-12-01T22:32:51.243Z,2.38
2022-12-01T22:35:22.855Z,2.39
2022-12-01T22:38:12.886Z,2.42
2022-12-01T22:40:51.885Z,2.44
2022-12-01T22:43:18.559Z,2.38
2022-12-01T22:46:00.532Z,2.37
2022-12-01T22:48:43.668Z,2.34
2022-12-01T22:51:13.126Z,2.29
2022-12-01T22:53:41.259Z,2.22
2022-12-01T22:56:26.637Z,2.25
2022-12-01T22:58:53.350Z,2.26
2022-12-01T23:01:33.789Z,2.26
2022-12-01T23:04:35.795Z,2.24
2022-12-01T23:07:35.015Z,2.22
2022-12-01T23:10:24.968Z,2.14
2022-12-01T23:12:54.821Z,2.13
2022-12-01T23:15:35.481Z,2.08
2022-12-01T23:18:15.392Z,2.08
2022-12-01T23:20:44.428Z,2.04
2022-12-01T23:23:17.124Z,2.08
2022-12-01T23:25:44.512Z,2.10
2022-12-01T23:28:12.550Z,2.05
2022-12-01T23:30:41.308Z,2.05
2022-12-01T23:33:36.997Z,2.04
2022-12-01T23:36:11.904Z,2.03
2022-12-01T23:38:45.097Z,1.99
2022-12-01T23:41:37.233Z,1.97
2022-12-01T23:44:20.283Z,1.93
2022-12-01T23:46:50.451Z,1.86
2022-12-01T23:49:20.911Z,1.85
2022-12-01T23:51:55.104Z,1.82
2022-12-01T23:54:29.280Z,1.86
2022-12-01T23:57:00.715Z,1.84
2022-12-01T23:59:29.071Z,1.82
